CDT,Max TemperatureF,Mean TemperatureF,Min TemperatureF,Max Dew PointF,MeanDew PointF,Min DewpointF,Max Humidity, Mean Humidity, Min Humidity, Max Sea Level PressureIn, Mean Sea Level PressureIn, Min Sea Level PressureIn, Max VisibilityMiles, Mean VisibilityMiles, Min VisibilityMiles, Max Wind SpeedMPH, Mean Wind SpeedMPH, Max Gust SpeedMPH,PrecipitationIn, CloudCover, Events, WindDirDegrees
2013-10-1,66,58,51,52,41,30,88,53,26,29.86,29.66,29.51,10,10,10,22,8,34,0.00,1,Rain,241
2013-10-2,66,54,42,48,39,34,94,61,30,30.04,29.97,29.87,10,10,7,10,6,,0.00,2,Rain,240
2013-10-3,60,48,37,48,44,37,100,80,52,30.08,30.00,29.96,10,9,1,10,2,,0.00,4,Rain,77
2013-10-4,55,52,48,48,45,39,94,81,62,30.18,30.13,30.07,10,10,7,9,5,17,0.00,7,Rain,52
2013-10-5,48,45,42,45,42,39,100,91,71,30.12,29.97,29.79,10,8,4,14,10,21,0.00,8,Rain,70
2013-10-6,46,40,33,43,41,34,100,93,87,29.81,29.73,29.70,10,7,0,9,4,16,0.00,7,Fog-Rain,348
2013-10-7,57,44,32,43,36,30,100,83,44,29.94,29.84,29.72,10,10,2,12,3,20,0.00,1,,285
2013-10-8,71,50,30,43,39,28,100,60,31,29.94,29.82,29.72,10,10,7,22,6,30,0.00,0,,173
2013-10-9,71,60,48,48,46,43,93,61,41,30.04,29.95,29.82,10,10,10,14,8,18,0.00,0,,209
2013-10-10,71,56,42,48,44,41,93,66,33,30.04,29.99,29.93,10,10,10,16,4,22,0.00,0,,154
2013-10-11,69,61,53,54,49,43,88,67,49,29.95,29.83,29.64,10,10,7,20,9,32,0.00,1,Rain-Thunderstorm,139
2013-10-12,62,53,44,54,46,39,100,78,58,30.01,29.74,29.58,10,9,2,20,13,30,0.00,7,Rain,215
2013-10-13,53,42,30,43,34,27,100,76,41,30.38,30.26,30.01,10,10,4,14,6,22,0.00,3,Rain,271
2013-10-14,51,38,26,43,33,25,100,81,47,30.40,30.33,30.20,10,10,3,8,1,,0.00,4,Rain,113
2013-10-15,42,40,39,41,40,37,100,92,87,30.19,29.95,29.85,10,10,5,13,8,24,0.00,7,Rain,43
2013-10-16,51,40,30,37,34,28,93,77,47,29.88,29.84,29.79,10,10,7,9,3,,0.00,3,,288
2013-10-17,44,37,30,43,38,28,100,93,87,29.82,29.78,29.76,10,9,4,9,1,16,0.00,6,Rain,344
2013-10-18,46,37,28,37,31,27,100,79,46,29.86,29.82,29.74,10,10,10,12,3,16,0.00,5,,265
2013-10-19,42,34,26,36,31,27,100,89,61,29.73,29.67,29.63,10,10,7,8,1,,0.00,6,Rain-Snow,291
2013-10-20,37,34,30,34,32,30,100,93,81,29.72,29.70,29.68,10,8,2,10,1,20,0.00,8,Rain-Snow,279
2013-10-21,33,30,26,32,28,23,100,91,80,29.82,29.73,29.68,10,7,1,15,8,21,0.00,8,Snow,293
2013-10-22,35,32,28,30,26,23,100,83,65,29.95,29.91,29.83,10,10,4,10,5,,0.00,7,Snow,324
2013-10-23,33,30,28,28,26,23,93,86,69,29.98,29.92,29.88,10,10,10,14,6,20,0.00,8,,305
2013-10-24,39,34,28,32,28,25,100,83,56,30.18,30.09,29.98,10,9,2,13,6,16,0.00,6,Snow,298
2013-10-25,44,34,24,37,29,25,100,84,57,30.18,29.88,29.57,10,10,10,17,5,26,0.00,4,,228
2013-10-26,39,34,30,34,29,23,100,79,56,29.99,29.87,29.64,10,10,5,16,9,24,0.00,7,Rain-Snow,301
2013-10-27,39,32,26,30,26,14,86,71,59,30.27,29.89,29.71,10,10,10,13,6,21,0.00,6,,294
2013-10-28,35,27,19,18,16,12,93,66,38,30.50,30.42,30.28,10,10,10,10,4,17,0.00,1,,27
2013-10-29,39,26,14,25,19,12,100,77,45,30.44,30.28,30.12,10,10,7,10,1,,0.00,1,,217
2013-10-30,39,32,24,37,32,23,100,92,81,30.12,29.92,29.66,10,8,1,8,1,,0.00,8,Rain,134
2013-10-31,41,39,37,39,38,37,100,96,93,29.64,29.45,29.32,10,4,0,6,1,,0.00,8,Fog-Rain,325